sensor_id;sensor_type;location;lat;lon;timestamp;pressure;altitude;pressure_sealevel;temperature;humidity
18569;BME280;14780;48.316;-1.050;2023-05-24T00:01:36;99783.72;;;24.66;36.93
18569;BME280;14780;48.316;-1.050;2023-05-24T00:04:21;99776.59;;;24.65;36.95
18569;BME280;14780;48.316;-1.050;2023-05-24T00:07:06;99772.47;;;24.63;36.91
18569;BME280;14780;48.316;-1.050;2023-05-24T00:09:50;99771.63;;;24.62;36.84
18569;BME280;14780;48.316;-1.050;2023-05-24T00:12:36;99782.59;;;24.62;36.80
18569;BME280;14780;48.316;-1.050;2023-05-24T00:15:20;99780.94;;;24.61;36.73
18569;BME280;14780;48.316;-1.050;2023-05-24T00:18:05;99773.81;;;24.60;36.85
18569;BME280;14780;48.316;-1.050;2023-05-24T00:20:50;99772.97;;;24.60;36.80
18569;BME280;14780;48.316;-1.050;2023-05-24T00:23:35;99762.31;;;24.58;36.82
18569;BME280;14780;48.316;-1.050;2023-05-24T00:26:22;99757.94;;;24.57;36.74
18569;BME280;14780;48.316;-1.050;2023-05-24T00:29:06;99759.84;;;24.57;36.71
18569;BME280;14780;48.316;-1.050;2023-05-24T00:31:51;99754.03;;;24.53;36.75
18569;BME280;14780;48.316;-1.050;2023-05-24T00:34:35;99758.69;;;24.53;36.79
18569;BME280;14780;48.316;-1.050;2023-05-24T00:37:20;99757.84;;;24.52;36.66
18569;BME280;14780;48.316;-1.050;2023-05-24T00:40:05;99751.81;;;24.50;36.82
18569;BME280;14780;48.316;-1.050;2023-05-24T00:42:51;99750.19;;;24.49;36.72
18569;BME280;14780;48.316;-1.050;2023-05-24T00:45:35;99743.03;;;24.48;36.77
18569;BME280;14780;48.316;-1.050;2023-05-24T00:48:20;99740.28;;;24.48;36.75
18569;BME280;14780;48.316;-1.050;2023-05-24T00:51:06;99731.56;;;24.51;36.66
18569;BME280;14780;48.316;-1.050;2023-05-24T00:53:51;99732.91;;;24.49;36.60
18569;BME280;14780;48.316;-1.050;2023-05-24T00:56:36;99728.59;;;24.53;36.52
18569;BME280;14780;48.316;-1.050;2023-05-24T00:59:22;99741.19;;;24.54;36.51
18569;BME280;14780;48.316;-1.050;2023-05-24T01:02:07;99737.84;;;24.52;36.53
18569;BME280;14780;48.316;-1.050;2023-05-24T01:04:52;99742.53;;;24.51;36.52
18569;BME280;14780;48.316;-1.050;2023-05-24T01:08:01;99735.97;;;24.52;36.58
18569;BME280;14780;48.316;-1.050;2023-05-24T01:14:21;99731.56;;;24.51;36.69
18569;BME280;14780;48.316;-1.050;2023-05-24T01:20:06;99728.44;;;24.38;36.55
18569;BME280;14780;48.316;-1.050;2023-05-24T01:23:30;99732.06;;;24.43;36.57
18569;BME280;14780;48.316;-1.050;2023-05-24T01:29:41;99728.19;;;24.39;36.45
18569;BME280;14780;48.316;-1.050;2023-05-24T01:32:26;99725.94;;;24.31;36.45
18569;BME280;14780;48.316;-1.050;2023-05-24T01:35:11;99720.16;;;24.28;36.61
18569;BME280;14780;48.316;-1.050;2023-05-24T01:37:56;99713.84;;;24.27;36.46
18569;BME280;14780;48.316;-1.050;2023-05-24T01:40:41;99714.13;;;24.26;36.56
18569;BME280;14780;48.316;-1.050;2023-05-24T01:43:38;99728.34;;;24.28;36.51
18569;BME280;14780;48.316;-1.050;2023-05-24T01:46:37;99728.09;;;24.29;36.47
18569;BME280;14780;48.316;-1.050;2023-05-24T01:49:26;99740.06;;;24.23;36.48
18569;BME280;14780;48.316;-1.050;2023-05-24T01:52:16;99727.50;;;24.22;36.42
18569;BME280;14780;48.316;-1.050;2023-05-24T01:55:03;99723.38;;;24.20;36.33
18569;BME280;14780;48.316;-1.050;2023-05-24T01:57:50;99735.38;;;24.19;36.35
18569;BME280;14780;48.316;-1.050;2023-05-24T02:00:35;99730.16;;;24.17;36.31
18569;BME280;14780;48.316;-1.050;2023-05-24T02:03:22;99730.16;;;24.17;36.42
18569;BME280;14780;48.316;-1.050;2023-05-24T02:06:06;99723.06;;;24.16;36.32
18569;BME280;14780;48.316;-1.050;2023-05-24T02:08:51;99723.91;;;24.17;36.35
18569;BME280;14780;48.316;-1.050;2023-05-24T02:11:37;99728.53;;;24.16;36.30
18569;BME280;14780;48.316;-1.050;2023-05-24T02:14:21;99722.81;;;24.18;36.38
18569;BME280;14780;48.316;-1.050;2023-05-24T02:17:08;99733.75;;;24.18;36.21
18569;BME280;14780;48.316;-1.050;2023-05-24T02:19:53;99731.81;;;24.18;36.20
18569;BME280;14780;48.316;-1.050;2023-05-24T02:22:38;99741.94;;;24.18;36.06
18569;BME280;14780;48.316;-1.050;2023-05-24T02:25:23;99748.75;;;24.15;36.25
18569;BME280;14780;48.316;-1.050;2023-05-24T02:28:08;99753.13;;;24.16;36.20
18569;BME280;14780;48.316;-1.050;2023-05-24T02:30:52;99746.25;;;24.14;36.21
18569;BME280;14780;48.316;-1.050;2023-05-24T02:33:37;99749.84;;;24.14;36.06
18569;BME280;14780;48.316;-1.050;2023-05-24T02:36:22;99745.72;;;24.12;36.21
18569;BME280;14780;48.316;-1.050;2023-05-24T02:39:06;99747.59;;;24.11;36.17
18569;BME280;14780;48.316;-1.050;2023-05-24T02:41:51;99756.09;;;24.10;36.09
18569;BME280;14780;48.316;-1.050;2023-05-24T02:44:36;99754.41;;;24.09;36.14
18569;BME280;14780;48.316;-1.050;2023-05-24T02:47:20;99748.13;;;24.08;36.16
18569;BME280;14780;48.316;-1.050;2023-05-24T02:50:05;99756.59;;;24.07;36.15
18569;BME280;14780;48.316;-1.050;2023-05-24T02:52:50;99759.06;;;24.08;36.01
18569;BME280;14780;48.316;-1.050;2023-05-24T02:55:35;99756.59;;;24.07;35.99
18569;BME280;14780;48.316;-1.050;2023-05-24T02:58:20;99746.97;;;24.04;36.01
18569;BME280;14780;48.316;-1.050;2023-05-24T03:01:07;99750.81;;;24.03;36.10
18569;BME280;14780;48.316;-1.050;2023-05-24T03:03:52;99746.66;;;24.01;36.06
18569;BME280;14780;48.316;-1.050;2023-05-24T03:06:36;99747.50;;;24.01;35.95
18569;BME280;14780;48.316;-1.050;2023-05-24T03:09:21;99743.13;;;24.00;35.98
18569;BME280;14780;48.316;-1.050;2023-05-24T03:12:06;99737.06;;;23.98;36.04
18569;BME280;14780;48.316;-1.050;2023-05-24T03:14:51;99741.97;;;23.96;35.85
18569;BME280;14780;48.316;-1.050;2023-05-24T03:17:36;99734.31;;;23.93;35.95
18569;BME280;14780;48.316;-1.050;2023-05-24T03:20:20;99730.50;;;23.94;35.88
18569;BME280;14780;48.316;-1.050;2023-05-24T03:23:06;99734.31;;;23.93;35.92
18569;BME280;14780;48.316;-1.050;2023-05-24T03:25:53;99738.13;;;23.92;35.96
18569;BME280;14780;48.316;-1.050;2023-05-24T03:28:38;99745.72;;;23.90;35.92
18569;BME280;14780;48.316;-1.050;2023-05-24T03:31:24;99737.81;;;23.89;35.90
18569;BME280;14780;48.316;-1.050;2023-05-24T03:34:10;99740.78;;;23.87;35.82
18569;BME280;14780;48.316;-1.050;2023-05-24T03:36:54;99741.88;;;23.86;35.77
18569;BME280;14780;48.316;-1.050;2023-05-24T03:39:39;99740.19;;;23.85;35.91
18569;BME280;14780;48.316;-1.050;2023-05-24T03:42:23;99744.03;;;23.84;35.89
18569;BME280;14780;48.316;-1.050;2023-05-24T03:45:08;99745.34;;;23.82;35.75
18569;BME280;14780;48.316;-1.050;2023-05-24T03:47:54;99748.09;;;23.82;35.80
18569;BME280;14780;48.316;-1.050;2023-05-24T03:50:38;99751.06;;;23.80;35.83
18569;BME280;14780;48.316;-1.050;2023-05-24T03:53:23;99756.53;;;23.80;35.53
18569;BME280;14780;48.316;-1.050;2023-05-24T03:56:07;99755.97;;;23.78;35.81
18569;BME280;14780;48.316;-1.050;2023-05-24T03:58:52;99757.88;;;23.78;35.80
18569;BME280;14780;48.316;-1.050;2023-05-24T04:01:37;99762.53;;;23.77;35.77
18569;BME280;14780;48.316;-1.050;2023-05-24T04:04:22;99760.84;;;23.76;35.71
18569;BME280;14780;48.316;-1.050;2023-05-24T04:07:07;99760.84;;;23.76;35.69
18569;BME280;14780;48.316;-1.050;2023-05-24T04:09:55;99748.25;;;23.75;35.62
18569;BME280;14780;48.316;-1.050;2023-05-24T04:12:40;99752.09;;;23.74;35.64
18569;BME280;14780;48.316;-1.050;2023-05-24T04:15:25;99738.66;;;23.73;35.62
18569;BME280;14780;48.316;-1.050;2023-05-24T04:18:10;99744.97;;;23.73;35.58
18569;BME280;14780;48.316;-1.050;2023-05-24T04:20:55;99740.59;;;23.72;35.71
18569;BME280;14780;48.316;-1.050;2023-05-24T04:23:40;99737.84;;;23.72;35.55
18569;BME280;14780;48.316;-1.050;2023-05-24T04:26:24;99735.38;;;23.71;35.53
18569;BME280;14780;48.316;-1.050;2023-05-24T04:29:09;99738.34;;;23.69;35.54
18569;BME280;14780;48.316;-1.050;2023-05-24T04:31:54;99732.88;;;23.69;35.57
18569;BME280;14780;48.316;-1.050;2023-05-24T04:34:40;99737.53;;;23.69;35.58
18569;BME280;14780;48.316;-1.050;2023-05-24T04:37:26;99741.38;;;23.68;35.44
18569;BME280;14780;48.316;-1.050;2023-05-24T04:40:11;99739.97;;;23.65;35.54
18569;BME280;14780;48.316;-1.050;2023-05-24T04:42:55;99744.34;;;23.66;35.42
18569;BME280;14780;48.316;-1.050;2023-05-24T04:45:40;99738.31;;;23.64;35.43
18569;BME280;14780;48.316;-1.050;2023-05-24T04:48:25;99746.50;;;23.64;35.46
18569;BME280;14780;48.316;-1.050;2023-05-24T04:51:09;99744.03;;;23.63;35.47
18569;BME280;14780;48.316;-1.050;2023-05-24T04:53:54;99754.13;;;23.62;35.44
18569;BME280;14780;48.316;-1.050;2023-05-24T04:56:39;99740.72;;;23.61;35.43
18569;BME280;14780;48.316;-1.050;2023-05-24T04:59:24;99751.91;;;23.59;35.36
18569;BME280;14780;48.316;-1.050;2023-05-24T05:02:09;99747.53;;;23.58;35.45
18569;BME280;14780;48.316;-1.050;2023-05-24T05:04:53;99755.72;;;23.58;35.36
18569;BME280;14780;48.316;-1.050;2023-05-24T05:07:38;99759.78;;;23.56;35.34
18569;BME280;14780;48.316;-1.050;2023-05-24T05:10:23;99750.75;;;23.55;35.34
18569;BME280;14780;48.316;-1.050;2023-05-24T05:13:09;99756.22;;;23.55;35.32
18569;BME280;14780;48.316;-1.050;2023-05-24T05:15:54;99760.03;;;23.54;35.31
18569;BME280;14780;48.316;-1.050;2023-05-24T05:18:39;99761.09;;;23.53;35.33
18569;BME280;14780;48.316;-1.050;2023-05-24T05:21:24;99766.84;;;23.52;35.39
18569;BME280;14780;48.316;-1.050;2023-05-24T05:24:09;99762.19;;;23.52;35.24
18569;BME280;14780;48.316;-1.050;2023-05-24T05:26:53;99764.94;;;23.52;35.27
18569;BME280;14780;48.316;-1.050;2023-05-24T05:29:38;99767.91;;;23.51;35.22
18569;BME280;14780;48.316;-1.050;2023-05-24T05:32:22;99772.56;;;23.50;35.24
18569;BME280;14780;48.316;-1.050;2023-05-24T05:35:07;99776.38;;;23.49;35.22
18569;BME280;14780;48.316;-1.050;2023-05-24T05:37:52;99781.84;;;23.49;35.41
18569;BME280;14780;48.316;-1.050;2023-05-24T05:40:37;99781.84;;;23.49;35.23
18569;BME280;14780;48.316;-1.050;2023-05-24T05:43:21;99783.97;;;23.47;35.39
18569;BME280;14780;48.316;-1.050;2023-05-24T05:46:06;99780.19;;;23.48;35.26
18569;BME280;14780;48.316;-1.050;2023-05-24T05:48:51;99774.97;;;23.47;35.23
18569;BME280;14780;48.316;-1.050;2023-05-24T05:51:36;99787.78;;;23.46;35.22
18569;BME280;14780;48.316;-1.050;2023-05-24T05:54:22;99781.50;;;23.46;35.32
18569;BME280;14780;48.316;-1.050;2023-05-24T05:57:06;99777.38;;;23.43;35.17
18569;BME280;14780;48.316;-1.050;2023-05-24T05:59:54;99777.94;;;23.45;35.23
18569;BME280;14780;48.316;-1.050;2023-05-24T06:02:39;99775.72;;;23.42;35.46
18569;BME280;14780;48.316;-1.050;2023-05-24T06:05:24;99784.50;;;23.44;35.33
18569;BME280;14780;48.316;-1.050;2023-05-24T06:08:09;99780.09;;;23.43;35.27
18569;BME280;14780;48.316;-1.050;2023-05-24T06:10:54;99775.72;;;23.42;35.22
18569;BME280;14780;48.316;-1.050;2023-05-24T06:13:39;99776.22;;;23.39;35.28
18569;BME280;14780;48.316;-1.050;2023-05-24T06:16:23;99777.88;;;23.40;35.20
18569;BME280;14780;48.316;-1.050;2023-05-24T06:19:08;99783.84;;;23.38;35.29
18569;BME280;14780;48.316;-1.050;2023-05-24T06:21:53;99787.13;;;23.39;35.32
18569;BME280;14780;48.316;-1.050;2023-05-24T06:24:37;99776.22;;;23.39;35.39
18569;BME280;14780;48.316;-1.050;2023-05-24T06:27:22;99785.00;;;23.42;35.22
18569;BME280;14780;48.316;-1.050;2023-05-24T06:30:08;99786.38;;;23.44;35.39
18569;BME280;14780;48.316;-1.050;2023-05-24T06:32:52;99792.69;;;23.44;35.45
18569;BME280;14780;48.316;-1.050;2023-05-24T06:35:37;99797.06;;;23.45;35.41
18569;BME280;14780;48.316;-1.050;2023-05-24T06:38:21;99782.84;;;23.43;35.54
18569;BME280;14780;48.316;-1.050;2023-05-24T06:41:06;99792.44;;;23.46;35.51
18569;BME280;14780;48.316;-1.050;2023-05-24T06:43:52;99794.91;;;23.47;35.39
18569;BME280;14780;48.316;-1.050;2023-05-24T06:46:38;99791.34;;;23.47;35.38
18569;BME280;14780;48.316;-1.050;2023-05-24T06:49:23;99793.00;;;23.48;35.28
18569;BME280;14780;48.316;-1.050;2023-05-24T06:52:07;99799.78;;;23.45;35.36
18569;BME280;14780;48.316;-1.050;2023-05-24T06:54:52;99812.38;;;23.46;35.51
18569;BME280;14780;48.316;-1.050;2023-05-24T06:57:37;99812.38;;;23.46;35.35
18569;BME280;14780;48.316;-1.050;2023-05-24T07:00:21;99820.88;;;23.50;35.16
18569;BME280;14780;48.316;-1.050;2023-05-24T07:03:07;99822.53;;;23.51;35.19
18569;BME280;14780;48.316;-1.050;2023-05-24T07:05:52;99821.47;;;23.52;35.20
18569;BME280;14780;48.316;-1.050;2023-05-24T07:08:36;99825.03;;;23.52;35.20
18569;BME280;14780;48.316;-1.050;2023-05-24T07:11:21;99822.28;;;23.52;35.14
18569;BME280;14780;48.316;-1.050;2023-05-24T07:14:06;99823.38;;;23.51;35.15
18569;BME280;14780;48.316;-1.050;2023-05-24T07:16:51;99818.75;;;23.52;35.14
18569;BME280;14780;48.316;-1.050;2023-05-24T07:19:36;99835.44;;;23.55;35.22
18569;BME280;14780;48.316;-1.050;2023-05-24T07:22:20;99825.34;;;23.56;35.08
18569;BME280;14780;48.316;-1.050;2023-05-24T07:25:06;99821.78;;;23.55;35.11
18569;BME280;14780;48.316;-1.050;2023-05-24T07:27:52;99824.50;;;23.55;35.20
18569;BME280;14780;48.316;-1.050;2023-05-24T07:30:37;99818.47;;;23.53;35.16
18569;BME280;14780;48.316;-1.050;2023-05-24T07:33:22;99812.44;;;23.51;35.20
18569;BME280;14780;48.316;-1.050;2023-05-24T07:36:07;99818.75;;;23.52;35.32
18569;BME280;14780;48.316;-1.050;2023-05-24T07:38:52;99817.91;;;23.51;35.28
18569;BME280;14780;48.316;-1.050;2023-05-24T07:41:37;99817.91;;;23.51;35.18
18569;BME280;14780;48.316;-1.050;2023-05-24T07:44:22;99815.19;;;23.51;35.20
18569;BME280;14780;48.316;-1.050;2023-05-24T07:47:07;99821.72;;;23.50;35.31
18569;BME280;14780;48.316;-1.050;2023-05-24T07:49:52;99829.69;;;23.52;35.32
18569;BME280;14780;48.316;-1.050;2023-05-24T07:52:37;99829.91;;;23.50;35.30
18569;BME280;14780;48.316;-1.050;2023-05-24T07:55:24;99838.91;;;23.51;35.21
18569;BME280;14780;48.316;-1.050;2023-05-24T07:58:11;99840.59;;;23.52;35.30
18569;BME280;14780;48.316;-1.050;2023-05-24T08:00:55;99847.13;;;23.51;35.26
18569;BME280;14780;48.316;-1.050;2023-05-24T08:03:40;99838.91;;;23.51;35.30
18569;BME280;14780;48.316;-1.050;2023-05-24T08:06:25;99840.59;;;23.52;35.21
18569;BME280;14780;48.316;-1.050;2023-05-24T08:09:10;99839.75;;;23.51;35.29
18569;BME280;14780;48.316;-1.050;2023-05-24T08:11:56;99839.75;;;23.51;35.27
18569;BME280;14780;48.316;-1.050;2023-05-24T08:14:41;99843.06;;;23.53;35.17
18569;BME280;14780;48.316;-1.050;2023-05-24T08:17:26;99841.41;;;23.52;35.22
18569;BME280;14780;48.316;-1.050;2023-05-24T08:20:11;99840.31;;;23.53;35.19
18569;BME280;14780;48.316;-1.050;2023-05-24T08:22:59;99847.72;;;23.53;35.25
18569;BME280;14780;48.316;-1.050;2023-05-24T08:25:45;99827.50;;;23.54;35.28
18569;BME280;14780;48.316;-1.050;2023-05-24T08:28:29;99841.72;;;23.56;35.24
18569;BME280;14780;48.316;-1.050;2023-05-24T08:31:14;99844.47;;;23.56;35.21
18569;BME280;14780;48.316;-1.050;2023-05-24T08:34:00;99848.03;;;23.56;35.31
18569;BME280;14780;48.316;-1.050;2023-05-24T08:36:46;99855.72;;;23.59;35.19
18569;BME280;14780;48.316;-1.050;2023-05-24T08:39:31;99841.22;;;23.59;35.20
18569;BME280;14780;48.316;-1.050;2023-05-24T08:42:15;99832.78;;;23.60;35.22
18569;BME280;14780;48.316;-1.050;2023-05-24T08:45:07;99838.56;;;23.64;35.20
18569;BME280;14780;48.316;-1.050;2023-05-24T08:47:54;99847.84;;;23.63;35.27
18569;BME280;14780;48.316;-1.050;2023-05-24T08:50:39;99840.47;;;23.63;35.20
18569;BME280;14780;48.316;-1.050;2023-05-24T08:53:26;99850.31;;;23.64;35.17
18569;BME280;14780;48.316;-1.050;2023-05-24T08:56:11;99843.78;;;23.65;35.12
18569;BME280;14780;48.316;-1.050;2023-05-24T08:58:56;99853.63;;;23.66;35.08
18569;BME280;14780;48.316;-1.050;2023-05-24T09:01:42;99850.66;;;23.68;35.11
18569;BME280;14780;48.316;-1.050;2023-05-24T09:04:28;99844.91;;;23.69;35.08
18569;BME280;14780;48.316;-1.050;2023-05-24T09:07:16;99842.19;;;23.69;35.13
18569;BME280;14780;48.316;-1.050;2023-05-24T09:10:04;99849.31;;;23.70;35.18
18569;BME280;14780;48.316;-1.050;2023-05-24T09:12:55;99851.28;;;23.75;35.01
18569;BME280;14780;48.316;-1.050;2023-05-24T09:15:40;99846.91;;;23.74;34.96
18569;BME280;14780;48.316;-1.050;2023-05-24T09:18:26;99847.16;;;23.72;34.98
18569;BME280;14780;48.316;-1.050;2023-05-24T09:21:11;99851.53;;;23.73;34.93
18569;BME280;14780;48.316;-1.050;2023-05-24T09:23:56;99848.81;;;23.73;34.89
18569;BME280;14780;48.316;-1.050;2023-05-24T09:26:41;99852.63;;;23.72;34.88
18569;BME280;14780;48.316;-1.050;2023-05-24T09:29:26;99861.38;;;23.74;34.98
18569;BME280;14780;48.316;-1.050;2023-05-24T09:32:12;99854.03;;;23.75;34.88
18569;BME280;14780;48.316;-1.050;2023-05-24T09:34:58;99848.28;;;23.76;34.98
18569;BME280;14780;48.316;-1.050;2023-05-24T09:37:45;99854.59;;;23.77;34.85
18569;BME280;14780;48.316;-1.050;2023-05-24T09:40:31;99846.16;;;23.78;34.81
18569;BME280;14780;48.316;-1.050;2023-05-24T09:43:15;99854.06;;;23.80;34.86
18569;BME280;14780;48.316;-1.050;2023-05-24T09:46:04;99851.09;;;23.81;34.93
18569;BME280;14780;48.316;-1.050;2023-05-24T09:48:56;99852.25;;;23.85;34.86
18569;BME280;14780;48.316;-1.050;2023-05-24T09:51:41;99859.06;;;23.83;34.83
18569;BME280;14780;48.316;-1.050;2023-05-24T09:54:27;99849.75;;;23.84;34.88
18569;BME280;14780;48.316;-1.050;2023-05-24T09:57:12;99858.81;;;23.84;34.82
18569;BME280;14780;48.316;-1.050;2023-05-24T10:00:05;99853.94;;;23.86;34.82
18569;BME280;14780;48.316;-1.050;2023-05-24T10:03:02;99850.94;;;23.88;34.83
18569;BME280;14780;48.316;-1.050;2023-05-24T10:05:47;99850.13;;;23.87;34.75
18569;BME280;14780;48.316;-1.050;2023-05-24T10:08:34;99850.13;;;23.87;34.79
18569;BME280;14780;48.316;-1.050;2023-05-24T10:11:19;99852.59;;;23.89;34.84
18569;BME280;14780;48.316;-1.050;2023-05-24T10:14:05;99846.88;;;23.90;34.80
18569;BME280;14780;48.316;-1.050;2023-05-24T10:16:50;99852.09;;;23.92;34.75
18569;BME280;14780;48.316;-1.050;2023-05-24T10:19:37;99849.09;;;23.93;34.67
18569;BME280;14780;48.316;-1.050;2023-05-24T10:22:23;99849.09;;;23.93;34.76
18569;BME280;14780;48.316;-1.050;2023-05-24T10:25:19;99846.94;;;23.95;34.73
18569;BME280;14780;48.316;-1.050;2023-05-24T10:28:09;99839.31;;;23.97;34.66
18569;BME280;14780;48.316;-1.050;2023-05-24T10:33:58;99838.81;;;24.00;34.54
18569;BME280;14780;48.316;-1.050;2023-05-24T10:36:44;99836.06;;;24.00;34.56
18569;BME280;14780;48.316;-1.050;2023-05-24T10:39:29;99834.97;;;24.01;34.61
18569;BME280;14780;48.316;-1.050;2023-05-24T10:42:16;99835.78;;;24.02;34.48
18569;BME280;14780;48.316;-1.050;2023-05-24T10:45:38;99835.41;;;24.15;34.43
18569;BME280;14780;48.316;-1.050;2023-05-24T10:51:35;99842.81;;;24.14;34.52
18569;BME280;14780;48.316;-1.050;2023-05-24T10:54:25;99839.75;;;24.11;34.61
18569;BME280;14780;48.316;-1.050;2023-05-24T10:57:10;99846.03;;;24.11;34.53
18569;BME280;14780;48.316;-1.050;2023-05-24T10:59:56;99825.81;;;24.12;34.39
18569;BME280;14780;48.316;-1.050;2023-05-24T11:02:41;99837.34;;;24.14;34.36
18569;BME280;14780;48.316;-1.050;2023-05-24T11:05:33;99845.00;;;24.17;34.47
18569;BME280;14780;48.316;-1.050;2023-05-24T11:08:25;99839.06;;;24.20;34.39
18569;BME280;14780;48.316;-1.050;2023-05-24T11:11:14;99834.38;;;24.21;34.41
18569;BME280;14780;48.316;-1.050;2023-05-24T11:14:05;99832.22;;;24.23;34.26
18569;BME280;14780;48.316;-1.050;2023-05-24T11:16:50;99828.38;;;24.24;34.25
18569;BME280;14780;48.316;-1.050;2023-05-24T11:19:37;99836.34;;;24.25;34.38
18569;BME280;14780;48.316;-1.050;2023-05-24T11:22:23;99824.91;;;24.28;34.30
18569;BME280;14780;48.316;-1.050;2023-05-24T11:25:08;99827.38;;;24.30;34.27
18569;BME280;14780;48.316;-1.050;2023-05-24T11:27:55;99828.53;;;24.34;34.39
18569;BME280;14780;48.316;-1.050;2023-05-24T11:30:43;99829.31;;;24.34;34.34
18569;BME280;14780;48.316;-1.050;2023-05-24T11:33:29;99818.69;;;24.38;34.29
18569;BME280;14780;48.316;-1.050;2023-05-24T11:36:14;99822.28;;;24.38;34.38
18569;BME280;14780;48.316;-1.050;2023-05-24T11:38:59;99816.28;;;24.41;34.37
18569;BME280;14780;48.316;-1.050;2023-05-24T11:41:44;99822.34;;;24.43;34.18
18569;BME280;14780;48.316;-1.050;2023-05-24T11:44:31;99822.88;;;24.45;34.21
18569;BME280;14780;48.316;-1.050;2023-05-24T11:47:18;99823.44;;;24.47;34.20
18569;BME280;14780;48.316;-1.050;2023-05-24T11:50:04;99817.47;;;24.50;34.25
18569;BME280;14780;48.316;-1.050;2023-05-24T11:52:50;99817.78;;;24.54;34.17
18569;BME280;14780;48.316;-1.050;2023-05-24T11:55:35;99823.00;;;24.55;34.24
18569;BME280;14780;48.316;-1.050;2023-05-24T11:58:35;99808.53;;;24.60;34.26
18569;BME280;14780;48.316;-1.050;2023-05-24T12:01:27;99807.22;;;24.62;34.26
18569;BME280;14780;48.316;-1.050;2023-05-24T12:04:12;99799.84;;;24.63;34.09
18569;BME280;14780;48.316;-1.050;2023-05-24T12:06:58;99785.06;;;24.64;34.20
18569;BME280;14780;48.316;-1.050;2023-05-24T12:09:43;99800.13;;;24.66;34.18
18569;BME280;14780;48.316;-1.050;2023-05-24T12:12:28;99802.94;;;24.71;34.15
18569;BME280;14780;48.316;-1.050;2023-05-24T12:15:13;99800.19;;;24.71;34.09
18569;BME280;14780;48.316;-1.050;2023-05-24T12:17:58;99796.94;;;24.74;33.92
18569;BME280;14780;48.316;-1.050;2023-05-24T12:20:44;99807.34;;;24.77;34.15
18569;BME280;14780;48.316;-1.050;2023-05-24T12:23:29;99800.81;;;24.78;34.00
18569;BME280;14780;48.316;-1.050;2023-05-24T12:26:18;99792.31;;;24.80;33.98
18569;BME280;14780;48.316;-1.050;2023-05-24T12:29:06;99788.22;;;24.82;33.94
18569;BME280;14780;48.316;-1.050;2023-05-24T12:31:50;99803.31;;;24.85;34.07
18569;BME280;14780;48.316;-1.050;2023-05-24T12:34:36;99803.63;;;24.88;33.80
18569;BME280;14780;48.316;-1.050;2023-05-24T12:37:21;99803.63;;;24.88;33.88
18569;BME280;14780;48.316;-1.050;2023-05-24T12:43:04;99801.97;;;24.92;33.91
18569;BME280;14780;48.316;-1.050;2023-05-24T12:45:49;99796.81;;;24.96;33.97
18569;BME280;14780;48.316;-1.050;2023-05-24T12:48:34;99797.66;;;24.96;33.82
18569;BME280;14780;48.316;-1.050;2023-05-24T12:51:18;99787.25;;;24.98;33.95
18569;BME280;14780;48.316;-1.050;2023-05-24T12:54:03;99788.63;;;25.01;33.81
18569;BME280;14780;48.316;-1.050;2023-05-24T12:56:49;99780.19;;;25.02;33.78
18569;BME280;14780;48.316;-1.050;2023-05-24T12:59:34;99773.59;;;25.03;33.80
18569;BME280;14780;48.316;-1.050;2023-05-24T13:02:18;99785.69;;;25.07;33.87
18569;BME280;14780;48.316;-1.050;2023-05-24T13:05:03;99792.81;;;25.08;33.74
18569;BME280;14780;48.316;-1.050;2023-05-24T13:07:50;99789.53;;;25.11;33.73
18569;BME280;14780;48.316;-1.050;2023-05-24T13:10:35;99786.81;;;25.11;33.69
18569;BME280;14780;48.316;-1.050;2023-05-24T13:13:20;99785.19;;;25.15;33.75
18569;BME280;14780;48.316;-1.050;2023-05-24T13:16:06;99782.19;;;25.17;33.54
18569;BME280;14780;48.316;-1.050;2023-05-24T13:18:52;99778.09;;;25.19;33.69
18569;BME280;14780;48.316;-1.050;2023-05-24T13:21:37;99779.72;;;25.20;33.74
18569;BME280;14780;48.316;-1.050;2023-05-24T13:24:22;99772.13;;;25.22;33.58
18569;BME280;14780;48.316;-1.050;2023-05-24T13:27:07;99760.63;;;25.25;33.68
18569;BME280;14780;48.316;-1.050;2023-05-24T13:29:51;99770.50;;;25.26;33.58
18569;BME280;14780;48.316;-1.050;2023-05-24T13:32:36;99765.31;;;25.30;33.53
18569;BME280;14780;48.316;-1.050;2023-05-24T13:35:21;99761.22;;;25.32;33.50
18569;BME280;14780;48.316;-1.050;2023-05-24T13:38:06;99765.84;;;25.32;33.60
18569;BME280;14780;48.316;-1.050;2023-05-24T13:40:53;99759.03;;;25.34;33.61
18569;BME280;14780;48.316;-1.050;2023-05-24T13:43:38;99750.28;;;25.37;33.55
18569;BME280;14780;48.316;-1.050;2023-05-24T13:46:23;99757.41;;;25.38;33.49
18569;BME280;14780;48.316;-1.050;2023-05-24T13:49:08;99751.94;;;25.38;33.38
18569;BME280;14780;48.316;-1.050;2023-05-24T13:51:54;99748.66;;;25.41;33.55
18569;BME280;14780;48.316;-1.050;2023-05-24T13:54:40;99754.13;;;25.41;33.55
18569;BME280;14780;48.316;-1.050;2023-05-24T13:57:24;99749.78;;;25.45;33.42
18569;BME280;14780;48.316;-1.050;2023-05-24T14:00:09;99751.44;;;25.46;33.57
18569;BME280;14780;48.316;-1.050;2023-05-24T14:02:54;99749.25;;;25.48;33.50
18569;BME280;14780;48.316;-1.050;2023-05-24T14:05:39;99747.63;;;25.52;33.46
18569;BME280;14780;48.316;-1.050;2023-05-24T14:08:24;99743.25;;;25.51;33.38
18569;BME280;14780;48.316;-1.050;2023-05-24T14:11:09;99733.66;;;25.54;33.49
18569;BME280;14780;48.316;-1.050;2023-05-24T14:13:56;99733.38;;;25.55;33.44
18569;BME280;14780;48.316;-1.050;2023-05-24T14:16:41;99728.47;;;25.57;33.34
18569;BME280;14780;48.316;-1.050;2023-05-24T14:19:26;99731.75;;;25.59;33.28
18569;BME280;14780;48.316;-1.050;2023-05-24T14:22:10;99744.13;;;25.62;33.40
18569;BME280;14780;48.316;-1.050;2023-05-24T14:24:55;99742.19;;;25.62;33.25
18569;BME280;14780;48.316;-1.050;2023-05-24T14:27:40;99737.25;;;25.64;33.45
18569;BME280;14780;48.316;-1.050;2023-05-24T14:30:27;99741.66;;;25.65;33.20
18569;BME280;14780;48.316;-1.050;2023-05-24T14:33:13;99730.41;;;25.67;33.44
18569;BME280;14780;48.316;-1.050;2023-05-24T14:35:57;99728.25;;;25.69;33.35
18569;BME280;14780;48.316;-1.050;2023-05-24T14:38:42;99727.94;;;25.70;33.38
18569;BME280;14780;48.316;-1.050;2023-05-24T14:41:27;99721.38;;;25.71;33.22
18569;BME280;14780;48.316;-1.050;2023-05-24T14:44:13;99728.53;;;25.72;33.28
18569;BME280;14780;48.316;-1.050;2023-05-24T14:46:57;99724.13;;;25.71;33.34